sensor_id;sensor_type;location;lat;lon;timestamp;P1;durP1;ratioP1;P2;durP2;ratioP2
50858;SDS011;36826;47.514;19.056;2022-10-16T00:01:08;3.92;;;2.35;;
50858;SDS011;36826;47.514;19.056;2022-10-16T00:03:36;4.85;;;2.55;;
50858;SDS011;36826;47.514;19.056;2022-10-16T00:06:05;3.05;;;2.15;;
50858;SDS011;36826;47.514;19.056;2022-10-16T00:08:31;3.25;;;2.47;;
50858;SDS011;36826;47.514;19.056;2022-10-16T00:11:01;3.72;;;2.40;;
50858;SDS011;36826;47.514;19.056;2022-10-16T00:13:31;3.38;;;2.42;;
50858;SDS011;36826;47.514;19.056;2022-10-16T00:15:58;3.15;;;2.30;;
50858;SDS011;36826;47.514;19.056;2022-10-16T00:18:25;3.25;;;2.10;;
50858;SDS011;36826;47.514;19.056;2022-10-16T00:20:51;3.75;;;2.53;;
50858;SDS011;36826;47.514;19.056;2022-10-16T00:23:17;3.58;;;2.45;;
50858;SDS011;36826;47.514;19.056;2022-10-16T00:25:42;3.88;;;2.60;;
50858;SDS011;36826;47.514;19.056;2022-10-16T00:28:08;3.60;;;2.67;;
50858;SDS011;36826;47.514;19.056;2022-10-16T00:30:33;3.70;;;2.25;;
50858;SDS011;36826;47.514;19.056;2022-10-16T00:33:03;4.20;;;2.15;;
50858;SDS011;36826;47.514;19.056;2022-10-16T00:35:28;3.25;;;2.50;;
50858;SDS011;36826;47.514;19.056;2022-10-16T00:37:54;3.90;;;2.05;;
50858;SDS011;36826;47.514;19.056;2022-10-16T00:40:19;3.70;;;2.70;;
50858;SDS011;36826;47.514;19.056;2022-10-16T00:42:45;3.15;;;2.13;;
50858;SDS011;36826;47.514;19.056;2022-10-16T00:45:10;3.33;;;2.60;;
50858;SDS011;36826;47.514;19.056;2022-10-16T00:47:40;3.38;;;2.30;;
50858;SDS011;36826;47.514;19.056;2022-10-16T00:52:41;2.90;;;2.30;;
50858;SDS011;36826;47.514;19.056;2022-10-16T00:55:11;3.45;;;2.42;;
50858;SDS011;36826;47.514;19.056;2022-10-16T00:57:37;3.45;;;2.40;;
50858;SDS011;36826;47.514;19.056;2022-10-16T01:00:05;4.18;;;2.80;;
50858;SDS011;36826;47.514;19.056;2022-10-16T01:02:32;4.00;;;2.40;;
50858;SDS011;36826;47.514;19.056;2022-10-16T01:04:58;3.05;;;2.38;;
50858;SDS011;36826;47.514;19.056;2022-10-16T01:09:57;3.15;;;2.40;;
50858;SDS011;36826;47.514;19.056;2022-10-16T01:15:02;3.28;;;2.30;;
50858;SDS011;36826;47.514;19.056;2022-10-16T01:20:31;4.32;;;2.40;;
50858;SDS011;36826;47.514;19.056;2022-10-16T01:25:55;2.88;;;2.30;;
50858;SDS011;36826;47.514;19.056;2022-10-16T01:28:46;3.38;;;2.53;;
50858;SDS011;36826;47.514;19.056;2022-10-16T01:31:13;4.15;;;2.10;;
50858;SDS011;36826;47.514;19.056;2022-10-16T01:33:43;3.47;;;2.40;;
50858;SDS011;36826;47.514;19.056;2022-10-16T01:36:17;3.53;;;2.40;;
50858;SDS011;36826;47.514;19.056;2022-10-16T01:38:47;4.10;;;2.38;;
50858;SDS011;36826;47.514;19.056;2022-10-16T01:41:21;2.90;;;2.20;;
50858;SDS011;36826;47.514;19.056;2022-10-16T01:43:56;3.50;;;2.30;;
50858;SDS011;36826;47.514;19.056;2022-10-16T01:46:23;2.80;;;2.25;;
50858;SDS011;36826;47.514;19.056;2022-10-16T01:48:51;2.47;;;1.98;;
50858;SDS011;36826;47.514;19.056;2022-10-16T01:51:17;3.08;;;2.30;;
50858;SDS011;36826;47.514;19.056;2022-10-16T01:53:48;3.23;;;2.37;;
50858;SDS011;36826;47.514;19.056;2022-10-16T01:56:17;2.97;;;2.35;;
50858;SDS011;36826;47.514;19.056;2022-10-16T01:58:49;2.88;;;2.17;;
50858;SDS011;36826;47.514;19.056;2022-10-16T02:01:26;3.95;;;2.47;;
50858;SDS011;36826;47.514;19.056;2022-10-16T02:03:57;3.80;;;2.42;;
50858;SDS011;36826;47.514;19.056;2022-10-16T02:06:27;3.80;;;2.50;;
50858;SDS011;36826;47.514;19.056;2022-10-16T02:08:54;2.90;;;2.33;;
50858;SDS011;36826;47.514;19.056;2022-10-16T02:11:20;2.88;;;2.28;;
50858;SDS011;36826;47.514;19.056;2022-10-16T02:13:46;3.42;;;2.30;;
50858;SDS011;36826;47.514;19.056;2022-10-16T02:16:16;3.20;;;2.38;;
50858;SDS011;36826;47.514;19.056;2022-10-16T02:18:42;3.13;;;2.30;;
50858;SDS011;36826;47.514;19.056;2022-10-16T02:24:02;4.50;;;2.30;;
50858;SDS011;36826;47.514;19.056;2022-10-16T02:26:51;2.88;;;2.20;;
50858;SDS011;36826;47.514;19.056;2022-10-16T02:29:21;2.70;;;2.10;;
50858;SDS011;36826;47.514;19.056;2022-10-16T02:31:50;3.03;;;2.13;;
50858;SDS011;36826;47.514;19.056;2022-10-16T02:34:20;3.22;;;2.38;;
50858;SDS011;36826;47.514;19.056;2022-10-16T02:36:48;3.70;;;2.50;;
50858;SDS011;36826;47.514;19.056;2022-10-16T02:39:15;3.00;;;2.40;;
50858;SDS011;36826;47.514;19.056;2022-10-16T02:41:42;3.25;;;2.25;;
50858;SDS011;36826;47.514;19.056;2022-10-16T02:44:08;3.70;;;2.42;;
50858;SDS011;36826;47.514;19.056;2022-10-16T02:46:33;3.08;;;2.00;;
50858;SDS011;36826;47.514;19.056;2022-10-16T02:48:58;4.10;;;2.42;;
50858;SDS011;36826;47.514;19.056;2022-10-16T02:51:24;3.20;;;2.25;;
50858;SDS011;36826;47.514;19.056;2022-10-16T02:53:49;2.72;;;2.13;;
50858;SDS011;36826;47.514;19.056;2022-10-16T02:56:14;2.95;;;2.05;;
50858;SDS011;36826;47.514;19.056;2022-10-16T02:58:40;3.17;;;2.10;;
50858;SDS011;36826;47.514;19.056;2022-10-16T03:01:05;2.85;;;1.95;;
50858;SDS011;36826;47.514;19.056;2022-10-16T03:03:31;2.88;;;2.03;;
50858;SDS011;36826;47.514;19.056;2022-10-16T03:05:56;2.83;;;2.28;;
50858;SDS011;36826;47.514;19.056;2022-10-16T03:08:21;3.17;;;2.38;;
50858;SDS011;36826;47.514;19.056;2022-10-16T03:10:50;3.00;;;2.28;;
50858;SDS011;36826;47.514;19.056;2022-10-16T03:13:16;4.03;;;2.20;;
50858;SDS011;36826;47.514;19.056;2022-10-16T03:15:42;4.18;;;2.33;;
50858;SDS011;36826;47.514;19.056;2022-10-16T03:18:07;2.70;;;2.17;;
50858;SDS011;36826;47.514;19.056;2022-10-16T03:20:32;3.33;;;2.42;;
50858;SDS011;36826;47.514;19.056;2022-10-16T03:22:58;3.42;;;2.20;;
50858;SDS011;36826;47.514;19.056;2022-10-16T03:25:23;3.17;;;2.15;;
50858;SDS011;36826;47.514;19.056;2022-10-16T03:27:49;3.28;;;2.15;;
50858;SDS011;36826;47.514;19.056;2022-10-16T03:30:14;2.28;;;2.08;;
50858;SDS011;36826;47.514;19.056;2022-10-16T03:32:40;2.50;;;2.25;;
50858;SDS011;36826;47.514;19.056;2022-10-16T03:35:06;3.55;;;2.30;;
50858;SDS011;36826;47.514;19.056;2022-10-16T03:37:32;2.67;;;1.98;;
50858;SDS011;36826;47.514;19.056;2022-10-16T03:39:57;3.80;;;2.35;;
50858;SDS011;36826;47.514;19.056;2022-10-16T03:42:23;3.10;;;2.20;;
50858;SDS011;36826;47.514;19.056;2022-10-16T03:44:49;3.22;;;2.17;;
50858;SDS011;36826;47.514;19.056;2022-10-16T03:47:14;3.50;;;2.30;;
50858;SDS011;36826;47.514;19.056;2022-10-16T03:49:40;3.67;;;2.40;;
50858;SDS011;36826;47.514;19.056;2022-10-16T03:52:05;3.53;;;2.33;;
50858;SDS011;36826;47.514;19.056;2022-10-16T03:54:30;3.10;;;2.08;;
50858;SDS011;36826;47.514;19.056;2022-10-16T03:56:56;4.05;;;2.20;;
50858;SDS011;36826;47.514;19.056;2022-10-16T03:59:21;3.05;;;2.35;;
50858;SDS011;36826;47.514;19.056;2022-10-16T04:01:47;2.80;;;1.90;;
50858;SDS011;36826;47.514;19.056;2022-10-16T04:04:12;2.80;;;2.10;;
50858;SDS011;36826;47.514;19.056;2022-10-16T04:06:38;3.15;;;2.17;;
50858;SDS011;36826;47.514;19.056;2022-10-16T04:09:03;2.80;;;2.22;;
50858;SDS011;36826;47.514;19.056;2022-10-16T04:11:29;2.95;;;2.00;;
50858;SDS011;36826;47.514;19.056;2022-10-16T04:13:55;2.28;;;1.90;;
50858;SDS011;36826;47.514;19.056;2022-10-16T04:16:20;3.35;;;2.08;;
50858;SDS011;36826;47.514;19.056;2022-10-16T04:18:46;2.90;;;2.10;;
50858;SDS011;36826;47.514;19.056;2022-10-16T04:21:11;3.35;;;1.92;;
50858;SDS011;36826;47.514;19.056;2022-10-16T04:23:37;3.97;;;2.10;;
50858;SDS011;36826;47.514;19.056;2022-10-16T04:26:02;3.13;;;1.95;;
50858;SDS011;36826;47.514;19.056;2022-10-16T04:28:27;3.00;;;1.90;;
50858;SDS011;36826;47.514;19.056;2022-10-16T04:30:53;3.40;;;1.85;;
50858;SDS011;36826;47.514;19.056;2022-10-16T04:33:18;3.10;;;1.92;;
50858;SDS011;36826;47.514;19.056;2022-10-16T04:35:44;3.05;;;2.05;;
50858;SDS011;36826;47.514;19.056;2022-10-16T04:38:09;2.78;;;1.70;;
50858;SDS011;36826;47.514;19.056;2022-10-16T04:40:35;3.20;;;2.03;;
50858;SDS011;36826;47.514;19.056;2022-10-16T04:43:02;3.30;;;1.80;;
50858;SDS011;36826;47.514;19.056;2022-10-16T04:45:28;3.35;;;2.08;;
50858;SDS011;36826;47.514;19.056;2022-10-16T04:47:56;2.97;;;2.20;;
50858;SDS011;36826;47.514;19.056;2022-10-16T04:50:22;3.42;;;2.17;;
50858;SDS011;36826;47.514;19.056;2022-10-16T04:52:48;2.95;;;2.13;;
50858;SDS011;36826;47.514;19.056;2022-10-16T04:55:13;2.90;;;1.75;;
50858;SDS011;36826;47.514;19.056;2022-10-16T04:57:39;2.70;;;1.85;;
50858;SDS011;36826;47.514;19.056;2022-10-16T05:00:05;2.70;;;1.80;;
50858;SDS011;36826;47.514;19.056;2022-10-16T05:02:31;2.67;;;1.60;;
50858;SDS011;36826;47.514;19.056;2022-10-16T05:04:56;2.42;;;1.63;;
50858;SDS011;36826;47.514;19.056;2022-10-16T05:07:21;2.83;;;1.95;;
50858;SDS011;36826;47.514;19.056;2022-10-16T05:09:47;2.60;;;1.83;;
50858;SDS011;36826;47.514;19.056;2022-10-16T05:12:12;2.47;;;1.75;;
50858;SDS011;36826;47.514;19.056;2022-10-16T05:14:38;2.85;;;1.88;;
50858;SDS011;36826;47.514;19.056;2022-10-16T05:17:03;2.55;;;2.03;;
50858;SDS011;36826;47.514;19.056;2022-10-16T05:19:29;3.05;;;2.00;;
50858;SDS011;36826;47.514;19.056;2022-10-16T05:21:54;2.35;;;1.80;;
50858;SDS011;36826;47.514;19.056;2022-10-16T05:24:19;2.65;;;1.90;;
50858;SDS011;36826;47.514;19.056;2022-10-16T05:26:45;2.60;;;1.67;;
50858;SDS011;36826;47.514;19.056;2022-10-16T05:29:10;2.33;;;1.75;;
50858;SDS011;36826;47.514;19.056;2022-10-16T05:31:36;2.60;;;1.77;;
50858;SDS011;36826;47.514;19.056;2022-10-16T05:34:01;2.53;;;1.80;;
50858;SDS011;36826;47.514;19.056;2022-10-16T05:36:27;2.33;;;1.80;;
50858;SDS011;36826;47.514;19.056;2022-10-16T05:38:53;2.22;;;1.70;;
50858;SDS011;36826;47.514;19.056;2022-10-16T05:41:18;3.40;;;1.60;;
50858;SDS011;36826;47.514;19.056;2022-10-16T05:43:50;2.15;;;1.60;;
50858;SDS011;36826;47.514;19.056;2022-10-16T05:46:15;2.30;;;1.60;;
50858;SDS011;36826;47.514;19.056;2022-10-16T05:48:42;2.38;;;1.70;;
50858;SDS011;36826;47.514;19.056;2022-10-16T05:51:09;1.85;;;1.63;;
50858;SDS011;36826;47.514;19.056;2022-10-16T05:53:37;2.05;;;1.60;;
50858;SDS011;36826;47.514;19.056;2022-10-16T05:56:04;2.10;;;1.52;;
50858;SDS011;36826;47.514;19.056;2022-10-16T05:58:31;1.88;;;1.67;;
50858;SDS011;36826;47.514;19.056;2022-10-16T06:01:09;2.88;;;1.73;;
50858;SDS011;36826;47.514;19.056;2022-10-16T06:03:36;2.63;;;1.60;;
50858;SDS011;36826;47.514;19.056;2022-10-16T06:06:12;2.58;;;1.90;;
50858;SDS011;36826;47.514;19.056;2022-10-16T06:08:40;2.97;;;1.80;;
50858;SDS011;36826;47.514;19.056;2022-10-16T06:11:08;3.03;;;2.00;;
50858;SDS011;36826;47.514;19.056;2022-10-16T06:13:36;2.03;;;1.50;;
50858;SDS011;36826;47.514;19.056;2022-10-16T06:16:02;1.80;;;1.70;;
50858;SDS011;36826;47.514;19.056;2022-10-16T06:18:28;2.35;;;1.83;;
50858;SDS011;36826;47.514;19.056;2022-10-16T06:20:54;1.80;;;1.40;;
50858;SDS011;36826;47.514;19.056;2022-10-16T06:23:20;3.08;;;1.50;;
50858;SDS011;36826;47.514;19.056;2022-10-16T06:25:46;1.90;;;1.70;;
50858;SDS011;36826;47.514;19.056;2022-10-16T06:28:13;2.15;;;1.30;;
50858;SDS011;36826;47.514;19.056;2022-10-16T06:30:39;2.35;;;1.60;;
50858;SDS011;36826;47.514;19.056;2022-10-16T06:33:04;2.38;;;1.52;;
50858;SDS011;36826;47.514;19.056;2022-10-16T06:35:30;2.30;;;1.50;;
50858;SDS011;36826;47.514;19.056;2022-10-16T06:37:57;1.50;;;1.17;;
50858;SDS011;36826;47.514;19.056;2022-10-16T06:40:22;2.45;;;1.50;;
50858;SDS011;36826;47.514;19.056;2022-10-16T06:42:48;2.53;;;1.52;;
50858;SDS011;36826;47.514;19.056;2022-10-16T06:45:13;1.90;;;1.40;;
50858;SDS011;36826;47.514;19.056;2022-10-16T06:47:39;2.35;;;1.70;;
50858;SDS011;36826;47.514;19.056;2022-10-16T06:50:05;1.98;;;1.42;;
50858;SDS011;36826;47.514;19.056;2022-10-16T06:52:33;2.47;;;1.50;;
50858;SDS011;36826;47.514;19.056;2022-10-16T06:54:59;1.80;;;1.42;;
50858;SDS011;36826;47.514;19.056;2022-10-16T06:57:25;2.75;;;1.45;;
50858;SDS011;36826;47.514;19.056;2022-10-16T06:59:50;3.47;;;1.52;;
50858;SDS011;36826;47.514;19.056;2022-10-16T07:02:16;2.15;;;1.50;;
50858;SDS011;36826;47.514;19.056;2022-10-16T07:04:41;1.80;;;1.50;;
50858;SDS011;36826;47.514;19.056;2022-10-16T07:07:07;2.00;;;1.50;;
50858;SDS011;36826;47.514;19.056;2022-10-16T07:09:32;1.98;;;1.50;;
50858;SDS011;36826;47.514;19.056;2022-10-16T07:11:58;2.40;;;1.50;;
50858;SDS011;36826;47.514;19.056;2022-10-16T07:14:23;2.03;;;1.52;;
50858;SDS011;36826;47.514;19.056;2022-10-16T07:16:49;2.40;;;1.50;;
50858;SDS011;36826;47.514;19.056;2022-10-16T07:19:14;1.60;;;1.15;;
50858;SDS011;36826;47.514;19.056;2022-10-16T07:21:42;1.85;;;1.55;;
50858;SDS011;36826;47.514;19.056;2022-10-16T07:24:12;2.13;;;1.50;;
50858;SDS011;36826;47.514;19.056;2022-10-16T07:26:39;1.65;;;1.38;;
50858;SDS011;36826;47.514;19.056;2022-10-16T07:29:13;3.05;;;1.60;;
50858;SDS011;36826;47.514;19.056;2022-10-16T07:31:41;2.33;;;1.40;;
50858;SDS011;36826;47.514;19.056;2022-10-16T07:34:07;3.35;;;1.63;;
50858;SDS011;36826;47.514;19.056;2022-10-16T07:36:32;2.05;;;1.30;;
50858;SDS011;36826;47.514;19.056;2022-10-16T07:38:58;2.17;;;1.52;;
50858;SDS011;36826;47.514;19.056;2022-10-16T07:41:23;2.08;;;1.70;;
50858;SDS011;36826;47.514;19.056;2022-10-16T07:43:49;1.80;;;1.35;;
50858;SDS011;36826;47.514;19.056;2022-10-16T07:48:42;2.88;;;1.60;;
50858;SDS011;36826;47.514;19.056;2022-10-16T07:51:13;2.28;;;1.50;;
50858;SDS011;36826;47.514;19.056;2022-10-16T07:53:40;2.55;;;1.70;;
50858;SDS011;36826;47.514;19.056;2022-10-16T07:56:06;3.65;;;1.80;;
50858;SDS011;36826;47.514;19.056;2022-10-16T07:58:33;3.35;;;1.40;;
50858;SDS011;36826;47.514;19.056;2022-10-16T08:01:05;2.85;;;1.70;;
50858;SDS011;36826;47.514;19.056;2022-10-16T08:03:33;2.60;;;1.58;;
50858;SDS011;36826;47.514;19.056;2022-10-16T08:05:59;3.45;;;1.73;;
50858;SDS011;36826;47.514;19.056;2022-10-16T08:08:25;2.03;;;1.42;;
50858;SDS011;36826;47.514;19.056;2022-10-16T08:10:51;2.33;;;1.30;;
50858;SDS011;36826;47.514;19.056;2022-10-16T08:13:17;3.83;;;1.63;;
50858;SDS011;36826;47.514;19.056;2022-10-16T08:15:43;3.22;;;1.73;;
50858;SDS011;36826;47.514;19.056;2022-10-16T08:18:09;2.15;;;1.50;;
50858;SDS011;36826;47.514;19.056;2022-10-16T08:20:36;2.75;;;1.60;;
50858;SDS011;36826;47.514;19.056;2022-10-16T08:23:02;3.13;;;1.60;;
50858;SDS011;36826;47.514;19.056;2022-10-16T08:25:27;2.50;;;1.60;;
50858;SDS011;36826;47.514;19.056;2022-10-16T08:27:53;3.30;;;1.55;;
50858;SDS011;36826;47.514;19.056;2022-10-16T08:30:20;4.90;;;1.80;;
50858;SDS011;36826;47.514;19.056;2022-10-16T08:35:12;3.33;;;1.85;;
50858;SDS011;36826;47.514;19.056;2022-10-16T08:37:38;3.10;;;1.80;;
50858;SDS011;36826;47.514;19.056;2022-10-16T08:40:05;3.40;;;1.70;;
50858;SDS011;36826;47.514;19.056;2022-10-16T08:45:35;2.47;;;1.40;;
50858;SDS011;36826;47.514;19.056;2022-10-16T08:51:11;3.42;;;1.70;;
50858;SDS011;36826;47.514;19.056;2022-10-16T08:53:46;2.97;;;1.90;;
50858;SDS011;36826;47.514;19.056;2022-10-16T08:56:17;2.92;;;1.60;;
50858;SDS011;36826;47.514;19.056;2022-10-16T08:58:43;3.40;;;1.60;;
50858;SDS011;36826;47.514;19.056;2022-10-16T09:03:51;2.75;;;1.60;;
50858;SDS011;36826;47.514;19.056;2022-10-16T09:06:43;2.90;;;1.77;;
50858;SDS011;36826;47.514;19.056;2022-10-16T09:09:14;3.08;;;1.35;;
50858;SDS011;36826;47.514;19.056;2022-10-16T09:20:20;2.42;;;1.40;;
50858;SDS011;36826;47.514;19.056;2022-10-16T09:22:50;2.67;;;1.70;;
50858;SDS011;36826;47.514;19.056;2022-10-16T09:25:20;2.90;;;1.63;;
50858;SDS011;36826;47.514;19.056;2022-10-16T09:27:48;2.75;;;1.60;;
50858;SDS011;36826;47.514;19.056;2022-10-16T09:30:18;2.67;;;1.60;;
50858;SDS011;36826;47.514;19.056;2022-10-16T09:32:45;3.80;;;1.63;;
50858;SDS011;36826;47.514;19.056;2022-10-16T09:35:15;3.65;;;1.65;;
50858;SDS011;36826;47.514;19.056;2022-10-16T09:37:44;3.78;;;1.73;;
50858;SDS011;36826;47.514;19.056;2022-10-16T09:40:12;2.67;;;1.52;;
50858;SDS011;36826;47.514;19.056;2022-10-16T09:42:48;2.83;;;1.58;;
50858;SDS011;36826;47.514;19.056;2022-10-16T09:45:21;2.78;;;1.48;;
50858;SDS011;36826;47.514;19.056;2022-10-16T09:47:48;3.17;;;1.70;;
50858;SDS011;36826;47.514;19.056;2022-10-16T09:50:24;3.00;;;1.70;;
50858;SDS011;36826;47.514;19.056;2022-10-16T09:55:27;5.68;;;3.88;;
50858;SDS011;36826;47.514;19.056;2022-10-16T09:57:53;4.43;;;2.58;;
50858;SDS011;36826;47.514;19.056;2022-10-16T10:00:20;5.28;;;2.58;;
50858;SDS011;36826;47.514;19.056;2022-10-16T10:02:46;4.07;;;2.33;;
50858;SDS011;36826;47.514;19.056;2022-10-16T10:07:52;3.90;;;2.60;;
50858;SDS011;36826;47.514;19.056;2022-10-16T10:10:21;3.08;;;2.10;;
50858;SDS011;36826;47.514;19.056;2022-10-16T10:12:52;2.83;;;2.28;;
50858;SDS011;36826;47.514;19.056;2022-10-16T10:15:18;4.22;;;2.25;;
50858;SDS011;36826;47.514;19.056;2022-10-16T10:17:50;4.05;;;2.17;;
50858;SDS011;36826;47.514;19.056;2022-10-16T10:20:35;3.22;;;2.17;;
50858;SDS011;36826;47.514;19.056;2022-10-16T10:23:20;3.38;;;2.10;;
50858;SDS011;36826;47.514;19.056;2022-10-16T10:36:44;4.85;;;1.90;;
50858;SDS011;36826;47.514;19.056;2022-10-16T10:39:27;2.60;;;1.80;;
50858;SDS011;36826;47.514;19.056;2022-10-16T10:47:54;2.50;;;1.80;;
50858;SDS011;36826;47.514;19.056;2022-10-16T10:58:42;3.13;;;2.00;;
50858;SDS011;36826;47.514;19.056;2022-10-16T11:01:16;3.70;;;2.08;;
50858;SDS011;36826;47.514;19.056;2022-10-16T11:12:00;3.03;;;1.80;;
50858;SDS011;36826;47.514;19.056;2022-10-16T11:14:36;2.75;;;1.77;;
50858;SDS011;36826;47.514;19.056;2022-10-16T11:17:18;2.33;;;1.63;;
50858;SDS011;36826;47.514;19.056;2022-10-16T11:22:58;2.58;;;1.58;;
50858;SDS011;36826;47.514;19.056;2022-10-16T11:25:32;3.00;;;2.10;;
50858;SDS011;36826;47.514;19.056;2022-10-16T11:28:11;2.65;;;1.60;;
50858;SDS011;36826;47.514;19.056;2022-10-16T11:30:54;2.60;;;1.90;;
50858;SDS011;36826;47.514;19.056;2022-10-16T11:41:34;3.80;;;1.60;;
50858;SDS011;36826;47.514;19.056;2022-10-16T11:44:27;2.47;;;1.65;;
50858;SDS011;36826;47.514;19.056;2022-10-16T11:50:05;2.40;;;1.60;;
50858;SDS011;36826;47.514;19.056;2022-10-16T11:55:24;2.47;;;1.65;;
50858;SDS011;36826;47.514;19.056;2022-10-16T12:01:10;2.72;;;1.52;;
50858;SDS011;36826;47.514;19.056;2022-10-16T12:03:50;1.80;;;1.48;;
50858;SDS011;36826;47.514;19.056;2022-10-16T12:06:50;2.17;;;1.58;;
50858;SDS011;36826;47.514;19.056;2022-10-16T12:09:29;2.58;;;1.40;;
50858;SDS011;36826;47.514;19.056;2022-10-16T12:11:55;3.60;;;1.88;;
50858;SDS011;36826;47.514;19.056;2022-10-16T12:14:32;2.17;;;1.50;;
50858;SDS011;36826;47.514;19.056;2022-10-16T12:17:23;2.05;;;1.75;;
50858;SDS011;36826;47.514;19.056;2022-10-16T12:30:26;2.22;;;1.65;;
50858;SDS011;36826;47.514;19.056;2022-10-16T12:32:54;2.05;;;1.52;;
50858;SDS011;36826;47.514;19.056;2022-10-16T12:35:26;2.22;;;1.52;;
50858;SDS011;36826;47.514;19.056;2022-10-16T12:37:54;2.15;;;1.52;;
50858;SDS011;36826;47.514;19.056;2022-10-16T12:40:38;2.30;;;1.50;;
50858;SDS011;36826;47.514;19.056;2022-10-16T12:43:11;3.05;;;1.65;;
50858;SDS011;36826;47.514;19.056;2022-10-16T12:45:45;2.15;;;1.60;;
50858;SDS011;36826;47.514;19.056;2022-10-16T12:48:21;3.53;;;1.60;;
50858;SDS011;36826;47.514;19.056;2022-10-16T12:50:47;1.70;;;1.40;;
50858;SDS011;36826;47.514;19.056;2022-10-16T12:53:22;2.38;;;1.30;;
50858;SDS011;36826;47.514;19.056;2022-10-16T12:58:33;2.45;;;1.42;;
50858;SDS011;36826;47.514;19.056;2022-10-16T13:07:32;1.98;;;1.50;;
50858;SDS011;36826;47.514;19.056;2022-10-16T13:21:18;2.25;;;1.42;;
50858;SDS011;36826;47.514;19.056;2022-10-16T13:26:36;2.33;;;1.50;;
50858;SDS011;36826;47.514;19.056;2022-10-16T13:29:11;2.65;;;1.48;;
50858;SDS011;36826;47.514;19.056;2022-10-16T13:31:38;2.67;;;1.67;;
50858;SDS011;36826;47.514;19.056;2022-10-16T13:34:04;1.73;;;1.50;;
50858;SDS011;36826;47.514;19.056;2022-10-16T13:36:35;1.70;;;1.30;;
50858;SDS011;36826;47.514;19.056;2022-10-16T13:39:20;2.05;;;1.40;;
50858;SDS011;36826;47.514;19.056;2022-10-16T13:44:25;1.67;;;1.38;;
50858;SDS011;36826;47.514;19.056;2022-10-16T13:46:58;2.05;;;1.50;;
50858;SDS011;36826;47.514;19.056;2022-10-16T13:49:26;2.40;;;1.42;;
50858;SDS011;36826;47.514;19.056;2022-10-16T13:51:56;2.55;;;1.60;;
50858;SDS011;36826;47.514;19.056;2022-10-16T13:54:24;2.25;;;1.50;;
50858;SDS011;36826;47.514;19.056;2022-10-16T13:56:56;1.90;;;1.40;;
50858;SDS011;36826;47.514;19.056;2022-10-16T13:59:25;2.70;;;1.45;;
50858;SDS011;36826;47.514;19.056;2022-10-16T14:02:04;2.22;;;1.65;;
50858;SDS011;36826;47.514;19.056;2022-10-16T14:04:39;1.77;;;1.42;;
50858;SDS011;36826;47.514;19.056;2022-10-16T14:07:05;1.83;;;1.30;;
50858;SDS011;36826;47.514;19.056;2022-10-16T14:09:36;2.53;;;1.80;;
50858;SDS011;36826;47.514;19.056;2022-10-16T14:12:08;1.70;;;1.40;;
50858;SDS011;36826;47.514;19.056;2022-10-16T14:14:43;2.10;;;1.42;;
50858;SDS011;36826;47.514;19.056;2022-10-16T14:17:18;2.17;;;1.52;;
50858;SDS011;36826;47.514;19.056;2022-10-16T14:19:50;1.67;;;1.20;;
50858;SDS011;36826;47.514;19.056;2022-10-16T14:22:28;2.13;;;1.42;;
50858;SDS011;36826;47.514;19.056;2022-10-16T14:28:01;2.33;;;1.42;;
50858;SDS011;36826;47.514;19.056;2022-10-16T14:32:56;2.88;;;1.20;;
50858;SDS011;36826;47.514;19.056;2022-10-16T14:35:30;2.33;;;1.65;;
50858;SDS011;36826;47.514;19.056;2022-10-16T14:37:56;1.50;;;1.15;;
50858;SDS011;36826;47.514;19.056;2022-10-16T14:40:25;1.95;;;1.40;;
50858;SDS011;36826;47.514;19.056;2022-10-16T14:42:53;2.13;;;1.40;;
50858;SDS011;36826;47.514;19.056;2022-10-16T14:45:20;1.80;;;1.30;;
50858;SDS011;36826;47.514;19.056;2022-10-16T14:48:06;2.40;;;1.20;;
50858;SDS011;36826;47.514;19.056;2022-10-16T14:50:42;2.88;;;1.52;;
50858;SDS011;36826;47.514;19.056;2022-10-16T14:53:09;2.00;;;1.20;;
50858;SDS011;36826;47.514;19.056;2022-10-16T14:55:37;2.35;;;1.40;;
50858;SDS011;36826;47.514;19.056;2022-10-16T14:58:03;1.80;;;1.30;;
50858;SDS011;36826;47.514;19.056;2022-10-16T15:00:28;2.03;;;1.40;;
50858;SDS011;36826;47.514;19.056;2022-10-16T15:02:54;1.90;;;1.30;;
50858;SDS011;36826;47.514;19.056;2022-10-16T15:05:23;1.50;;;1.20;;
50858;SDS011;36826;47.514;19.056;2022-10-16T15:07:51;1.58;;;1.20;;
50858;SDS011;36826;47.514;19.056;2022-10-16T15:10:18;2.55;;;1.27;;
50858;SDS011;36826;47.514;19.056;2022-10-16T15:12:45;2.13;;;1.50;;
50858;SDS011;36826;47.514;19.056;2022-10-16T15:20:20;1.80;;;1.35;;
50858;SDS011;36826;47.514;19.056;2022-10-16T15:22:46;2.55;;;1.30;;
50858;SDS011;36826;47.514;19.056;2022-10-16T15:25:31;2.30;;;1.27;;
50858;SDS011;36826;47.514;19.056;2022-10-16T15:27:57;1.98;;;1.27;;
50858;SDS011;36826;47.514;19.056;2022-10-16T15:30:23;1.80;;;1.50;;
50858;SDS011;36826;47.514;19.056;2022-10-16T15:32:49;1.20;;;1.10;;
50858;SDS011;36826;47.514;19.056;2022-10-16T15:35:14;2.10;;;1.48;;
50858;SDS011;36826;47.514;19.056;2022-10-16T15:37:40;1.77;;;1.25;;
50858;SDS011;36826;47.514;19.056;2022-10-16T15:40:05;1.70;;;1.40;;
50858;SDS011;36826;47.514;19.056;2022-10-16T15:42:31;1.90;;;1.40;;
50858;SDS011;36826;47.514;19.056;2022-10-16T15:44:57;1.65;;;1.40;;
50858;SDS011;36826;47.514;19.056;2022-10-16T15:47:22;1.50;;;1.10;;
50858;SDS011;36826;47.514;19.056;2022-10-16T15:49:48;1.70;;;1.45;;
50858;SDS011;36826;47.514;19.056;2022-10-16T15:52:13;1.80;;;1.20;;
50858;SDS011;36826;47.514;19.056;2022-10-16T15:54:39;1.77;;;1.30;;
50858;SDS011;36826;47.514;19.056;2022-10-16T15:57:04;2.50;;;1.40;;
50858;SDS011;36826;47.514;19.056;2022-10-16T15:59:30;2.05;;;1.17;;
50858;SDS011;36826;47.514;19.056;2022-10-16T16:01:55;3.55;;;1.52;;
50858;SDS011;36826;47.514;19.056;2022-10-16T16:04:20;2.30;;;1.45;;
50858;SDS011;36826;47.514;19.056;2022-10-16T16:06:46;2.60;;;1.55;;
50858;SDS011;36826;47.514;19.056;2022-10-16T16:09:12;2.83;;;1.70;;
50858;SDS011;36826;47.514;19.056;2022-10-16T16:11:38;3.22;;;1.60;;
50858;SDS011;36826;47.514;19.056;2022-10-16T16:14:05;2.72;;;1.80;;
50858;SDS011;36826;47.514;19.056;2022-10-16T16:16:30;2.95;;;1.70;;
50858;SDS011;36826;47.514;19.056;2022-10-16T16:19:01;3.53;;;1.75;;
50858;SDS011;36826;47.514;19.056;2022-10-16T16:21:27;3.63;;;1.90;;
50858;SDS011;36826;47.514;19.056;2022-10-16T16:23:53;2.78;;;1.60;;
50858;SDS011;36826;47.514;19.056;2022-10-16T16:26:23;2.80;;;1.80;;
50858;SDS011;36826;47.514;19.056;2022-10-16T16:28:56;2.55;;;1.60;;
50858;SDS011;36826;47.514;19.056;2022-10-16T16:31:25;4.22;;;1.95;;
50858;SDS011;36826;47.514;19.056;2022-10-16T16:33:52;3.70;;;1.80;;
50858;SDS011;36826;47.514;19.056;2022-10-16T16:36:18;3.70;;;2.30;;
50858;SDS011;36826;47.514;19.056;2022-10-16T16:38:44;2.97;;;2.00;;
50858;SDS011;36826;47.514;19.056;2022-10-16T16:41:14;3.97;;;2.35;;
50858;SDS011;36826;47.514;19.056;2022-10-16T16:43:43;3.50;;;2.28;;
50858;SDS011;36826;47.514;19.056;2022-10-16T16:46:09;4.03;;;2.60;;
50858;SDS011;36826;47.514;19.056;2022-10-16T16:48:35;4.45;;;2.80;;
50858;SDS011;36826;47.514;19.056;2022-10-16T16:51:07;4.45;;;2.75;;
50858;SDS011;36826;47.514;19.056;2022-10-16T16:53:35;5.07;;;2.85;;
50858;SDS011;36826;47.514;19.056;2022-10-16T16:56:04;4.85;;;2.92;;
50858;SDS011;36826;47.514;19.056;2022-10-16T16:58:30;5.60;;;3.20;;
50858;SDS011;36826;47.514;19.056;2022-10-16T17:00:57;5.63;;;3.03;;
50858;SDS011;36826;47.514;19.056;2022-10-16T17:03:30;4.50;;;2.78;;
50858;SDS011;36826;47.514;19.056;2022-10-16T17:05:58;4.18;;;2.67;;